Home > Products > Valid Products > MTR

000
SAUS45 KRIW 271057
MTRP60
METAR KP60 271056Z AUTO 00000KT 00/M01 A3006 RMK AO1 SLP151
T00001006 $





000
SAUS45 KRIW 270457
MTRP60
METAR KP60 270456Z AUTO 00000KT 01/00 A3011 RMK AO1 SLP169 T00110000
$





000
SAUS45 KRIW 270058
MTRP60
METAR KP60 270056Z AUTO 00000KT 03/02 A3011 RMK AO1 SLP181 T00330022
$





000
SAUS45 KRIW 262357
MTRP60
METAR KP60 262356Z AUTO 00000KT 02/01 A3009 RMK AO1 SLP185 P0019
60019 T00170006 10106 20017 53002 $





000
SAUS45 KRIW 262157
MTRP60
METAR KP60 262156Z AUTO 00000KT 08/02 A3007 RMK AO1 SLP155 T00830017
$





000
SAUS45 KRIW 261257
MTRP60
METAR KP60 261256Z AUTO 00000KT 01/M01 A3012 RMK AO1 SLP186
T00061006 $





000
SAUS45 KRIW 261158
MTRP60
METAR KP60 261156Z AUTO 00000KT M01/M02 A3012 RMK AO1 SLP188 70025
T10061017 10006 21011 55000 $





000
SAUS45 KRIW 261057
MTRP60
METAR KP60 261056Z AUTO 00000KT M01/M02 A3012 RMK AO1 SLP180
T10111022 $





000
SAUS45 KRIW 260758
MTRP60
METAR KP60 260756Z AUTO 00000KT M01/M02 A3012 RMK AO1 SLP179
T10061017 $





000
SAUS45 KRIW 260258
MTRP60
METAR KP60 260256Z AUTO 00000KT 02/01 A3010 RMK AO1 SLP184 T00170006
55000 $





000
SAUS45 KRIW 260157
MTRP60
METAR KP60 260156Z AUTO 00000KT 03/01 A3010 RMK AO1 SLP177 T00330011
$





000
SAUS45 KRIW 252257
MTRP60
METAR KP60 252256Z AUTO VRB03KT 07/02 A3008 RMK AO1 SLP160 T00670017
$





000
SAUS45 KRIW 251857
MTRP60
METAR KP60 251856Z AUTO VRB03KT 06/03 A3006 RMK AO1 SLP157 T00560028
$





000
SAUS45 KRIW 251757
MTRP60
METAR KP60 251756Z AUTO VRB04KT 04/02 A3006 RMK AO1 SLP159 P0002
60018 T00440017 10044 20006 50005 $





000
SAUS45 KRIW 251657
MTRP60
METAR KP60 251656Z AUTO 33003KT 03/01 A3007 RMK AO1 SLP161 P0003
T00280011 $





000
SAUS45 KRIW 251357
MTRP60
METAR KP60 251356Z AUTO 00000KT 01/M01 A3004 RMK AO1 SLP159 P0004
T00061006 $





000
SAUS45 KRIW 251257
MTRP60
METAR KP60 251256Z AUTO 00000KT 01/M01 A3003 RMK AO1 SLP154 P0002
T00061006 $





000
SAUS45 KRIW 251157
MTRP60
METAR KP60 251156Z AUTO 00000KT 01/M01 A3002 RMK AO1 SLP148 P0003
60025 70043 T00061006 10011 20000 53002 $





000
SAUS45 KRIW 250657
MTRP60
METAR KP60 250656Z AUTO 00000KT 01/M01 A3002 RMK AO1 SLP131 P0008
T00061006 401111028 $





000
SAUS45 KRIW 250557
MTRP60
METAR KP60 250556Z AUTO 00000KT 01/00 A3003 RMK AO1 SLP134 P0008
60013 T00110000 10039 20011 51008 $





000
SAUS45 KRIW 250357
MTRP60
METAR KP60 250356Z AUTO 00000KT 03/02 A3001 RMK AO1 SLP133 T00280017
$





000
SAUS45 KRIW 250258
MTRP60
METAR KP60 250256Z AUTO 00000KT 03/02 A3000 RMK AO1 SLP130 60004
T00280017 53002 $





000
SAUS45 KRIW 242357
MTRP60
METAR KP60 242356Z AUTO 00000KT 03/02 A2999 RMK AO1 SLP149 P0005
60005 T00330017 10111 20033 53012 $





000
SAUS45 KRIW 241757
MTRP60
METAR KP60 241756Z AUTO 08/M02 A2996 RMK AO1 SLP120 T00831022 10083
21022 56003 $





000
SAUS45 KRIW 241457
MTRP60
METAR KP60 241456Z AUTO VRB03KT 05/M01 A2997 RMK AO1 SLP124
T00501011 53001 $





    US Dept of Commerce
    National Oceanic and Atmospheric Administration
    National Weather Service
    1325 East West Highway
    Silver Spring, MD 20910
    Page Author: NWS Internet Services Team
Disclaimer
Information Quality
Credits
Glossary
Privacy Policy
Freedom of Information Act (FOIA)
About Us
Career Opportunities